createdAt,value
2022-11-13T00:01:19.204Z,10.50
2022-11-13T00:04:20.794Z,10.50
2022-11-13T00:07:22.579Z,10.50
2022-11-13T00:10:24.243Z,10.40
2022-11-13T00:13:30.121Z,10.30
2022-11-13T00:16:32.235Z,10.20
2022-11-13T00:19:33.871Z,10.10
2022-11-13T00:22:35.572Z,10.00
2022-11-13T00:25:37.215Z,10.00
2022-11-13T00:29:13.082Z,9.90
2022-11-13T00:32:17.360Z,9.90
2022-11-13T00:35:18.960Z,9.80
2022-11-13T00:38:20.706Z,10.00
2022-11-13T00:41:23.284Z,9.80
2022-11-13T00:44:24.929Z,9.80
2022-11-13T00:47:26.602Z,9.80
2022-11-13T00:50:28.287Z,9.80
2022-11-13T00:53:30.163Z,9.70
2022-11-13T00:56:31.784Z,9.70
2022-11-13T00:59:33.399Z,9.60
2022-11-13T01:02:37.845Z,9.70
2022-11-13T01:05:41.937Z,9.40
2022-11-13T01:08:43.641Z,9.40
2022-11-13T01:11:45.359Z,9.50
2022-11-13T01:14:47.052Z,9.30
2022-11-13T01:17:48.679Z,9.40
2022-11-13T01:20:50.258Z,9.40
2022-11-13T01:23:51.951Z,9.30
2022-11-13T01:26:53.562Z,9.30
2022-11-13T01:29:55.260Z,9.30
2022-11-13T01:32:56.875Z,9.20
2022-11-13T01:36:07.365Z,9.10
2022-11-13T01:39:11.047Z,9.10
2022-11-13T01:42:12.662Z,9.00
2022-11-13T01:46:01.782Z,9.20
2022-11-13T01:49:16.615Z,9.20
2022-11-13T01:52:26.059Z,9.10
2022-11-13T01:58:30.168Z,8.90
2022-11-13T02:01:32.097Z,9.00
2022-11-13T02:16:58.837Z,8.60
2022-11-13T02:20:02.637Z,8.80
2022-11-13T02:23:30.891Z,8.90
2022-11-13T02:26:33.685Z,8.80
2022-11-13T02:29:35.316Z,8.80
2022-11-13T02:32:42.958Z,8.80
2022-11-13T02:35:44.596Z,8.90
2022-11-13T02:38:47.285Z,8.90
2022-11-13T02:41:48.895Z,9.00
2022-11-13T02:44:50.515Z,9.20
2022-11-13T02:47:52.128Z,9.10
2022-11-13T02:50:53.793Z,9.30
2022-11-13T02:53:55.515Z,9.20
2022-11-13T02:56:59.174Z,9.10
2022-11-13T03:00:00.920Z,9.10
2022-11-13T03:03:02.559Z,9.20
2022-11-13T03:06:04.248Z,9.10
2022-11-13T03:09:06.000Z,9.10
2022-11-13T03:12:09.130Z,9.10
2022-11-13T03:15:17.950Z,9.10
2022-11-13T03:18:19.582Z,9.20
2022-11-13T03:21:21.223Z,9.10
2022-11-13T03:24:22.871Z,9.10
2022-11-13T03:27:24.491Z,9.10
2022-11-13T03:30:26.524Z,9.10
2022-11-13T03:33:28.423Z,9.00
2022-11-13T03:36:30.123Z,9.00
2022-11-13T03:39:31.709Z,8.90
2022-11-13T03:42:34.138Z,8.80
2022-11-13T03:45:36.033Z,8.80
2022-11-13T03:48:37.697Z,8.80
2022-11-13T03:51:39.327Z,8.80
2022-11-13T03:54:40.934Z,8.70
2022-11-13T03:57:42.516Z,8.90
2022-11-13T04:00:45.763Z,8.90
2022-11-13T04:03:47.403Z,8.90
2022-11-13T04:06:49.080Z,8.90
2022-11-13T04:09:50.714Z,9.10
2022-11-13T04:12:52.380Z,9.00
2022-11-13T04:15:54.011Z,8.90
2022-11-13T04:18:55.634Z,9.10
2022-11-13T04:21:57.257Z,8.80
2022-11-13T04:24:58.908Z,8.90
2022-11-13T04:28:00.604Z,8.90
2022-11-13T04:31:02.229Z,8.80
2022-11-13T04:34:03.945Z,8.80
2022-11-13T04:37:05.699Z,8.80
2022-11-13T04:40:10.925Z,8.90
2022-11-13T04:43:12.539Z,8.90
2022-11-13T04:46:14.145Z,9.10
2022-11-13T04:49:15.809Z,9.00
2022-11-13T04:52:17.618Z,9.20
2022-11-13T04:55:19.354Z,9.10
2022-11-13T04:58:21.012Z,9.00
2022-11-13T05:01:22.712Z,9.10
2022-11-13T05:04:24.536Z,9.10
2022-11-13T05:07:26.481Z,9.20
2022-11-13T05:10:28.311Z,9.10
2022-11-13T05:13:34.420Z,8.90
2022-11-13T05:16:36.562Z,8.90
2022-11-13T05:19:41.357Z,9.00
2022-11-13T05:22:43.051Z,9.20
2022-11-13T05:25:44.724Z,9.10
2022-11-13T05:28:46.387Z,9.20
2022-11-13T05:31:48.163Z,9.10
2022-11-13T05:34:49.812Z,9.10
2022-11-13T05:37:51.440Z,8.80
2022-11-13T05:40:53.052Z,8.80
2022-11-13T05:43:59.200Z,9.00
2022-11-13T05:47:01.181Z,8.90
2022-11-13T05:50:03.142Z,9.00
2022-11-13T05:53:04.768Z,9.00
2022-11-13T05:56:34.241Z,9.00
2022-11-13T05:59:35.848Z,8.90
2022-11-13T06:02:40.571Z,9.00
2022-11-13T06:05:42.206Z,8.90
2022-11-13T06:08:44.711Z,8.90
2022-11-13T06:11:46.299Z,9.00
2022-11-13T06:14:47.884Z,8.90
2022-11-13T06:17:49.518Z,8.80
2022-11-13T06:20:51.317Z,8.70
2022-11-13T06:23:52.981Z,8.70
2022-11-13T06:26:54.616Z,8.60
2022-11-13T06:29:56.208Z,8.60
2022-11-13T06:32:57.923Z,8.60
2022-11-13T06:36:02.412Z,8.50
2022-11-13T06:39:10.147Z,8.40
2022-11-13T06:42:11.774Z,8.30
2022-11-13T06:45:13.488Z,8.30
2022-11-13T06:48:15.094Z,8.30
2022-11-13T06:51:22.379Z,8.40
2022-11-13T06:54:23.962Z,8.50
2022-11-13T06:57:25.753Z,8.60
2022-11-13T07:00:31.026Z,8.70
2022-11-13T07:03:35.472Z,8.70
2022-11-13T07:06:40.368Z,8.80
2022-11-13T07:09:42.261Z,9.00
2022-11-13T07:12:43.905Z,9.00
2022-11-13T07:15:45.546Z,9.00
2022-11-13T07:18:53.786Z,9.40
2022-11-13T07:21:55.455Z,9.50
2022-11-13T07:24:58.156Z,9.60
2022-11-13T07:27:59.778Z,9.80
2022-11-13T07:31:01.681Z,9.80
2022-11-13T07:34:03.402Z,9.90
2022-11-13T07:37:10.210Z,10.30
2022-11-13T07:40:12.515Z,10.40
2022-11-13T07:43:14.311Z,10.50
2022-11-13T07:46:15.963Z,10.70
2022-11-13T07:49:17.597Z,11.00
2022-11-13T07:52:19.338Z,11.10
2022-11-13T07:55:20.941Z,11.20
2022-11-13T07:58:22.535Z,11.40
2022-11-13T08:01:24.373Z,11.60
2022-11-13T08:04:26.190Z,11.70
2022-11-13T08:07:27.840Z,12.00
2022-11-13T08:10:30.710Z,12.00
2022-11-13T08:13:32.770Z,12.10
2022-11-13T08:16:34.462Z,12.20
2022-11-13T08:19:36.049Z,12.50
2022-11-13T08:22:40.761Z,12.60
2022-11-13T08:25:44.379Z,12.90
2022-11-13T08:28:46.167Z,13.10
2022-11-13T08:31:47.808Z,13.20
2022-11-13T08:34:49.430Z,13.30
2022-11-13T08:37:51.115Z,13.40
2022-11-13T08:40:56.053Z,13.40
2022-11-13T08:44:14.218Z,13.60
2022-11-13T08:47:16.127Z,13.60
2022-11-13T08:50:17.879Z,13.50
2022-11-13T08:53:19.604Z,13.60
2022-11-13T08:56:21.369Z,13.80
2022-11-13T08:59:23.691Z,13.80
2022-11-13T09:02:25.447Z,13.90
2022-11-13T09:05:27.668Z,14.00
2022-11-13T09:08:31.964Z,14.20
2022-11-13T09:11:34.317Z,14.40
2022-11-13T09:14:36.941Z,14.50
2022-11-13T09:17:41.634Z,14.70
2022-11-13T09:21:16.419Z,14.80
2022-11-13T09:24:18.333Z,14.80
2022-11-13T09:27:19.972Z,14.90
2022-11-13T09:30:22.195Z,15.00
2022-11-13T09:33:23.802Z,15.10
2022-11-13T09:36:25.380Z,15.20
2022-11-13T09:39:27.054Z,15.20
2022-11-13T09:45:34.367Z,15.30
2022-11-13T09:48:58.551Z,15.60
2022-11-13T09:52:06.600Z,15.80
2022-11-13T09:55:20.879Z,15.80
2022-11-13T09:58:56.328Z,15.80
2022-11-13T10:02:15.987Z,15.90
2022-11-13T10:05:29.639Z,15.80
2022-11-13T10:08:44.441Z,15.80
2022-11-13T10:12:07.569Z,15.90
2022-11-13T10:15:11.322Z,16.00
2022-11-13T10:18:29.231Z,16.10
2022-11-13T10:21:34.918Z,16.10
2022-11-13T10:24:42.775Z,16.10
2022-11-13T10:28:28.017Z,16.10
2022-11-13T10:31:27.812Z,16.10
2022-11-13T10:34:29.507Z,16.10
2022-11-13T10:37:56.922Z,16.00
2022-11-13T10:41:16.680Z,16.00
2022-11-13T10:44:33.333Z,16.00
2022-11-13T10:48:04.912Z,16.00
2022-11-13T10:51:20.113Z,16.00
2022-11-13T10:54:31.112Z,15.80
2022-11-13T10:57:34.688Z,15.80
2022-11-13T11:00:47.257Z,15.70
2022-11-13T11:03:50.396Z,15.70
2022-11-13T11:10:19.834Z,15.60
2022-11-13T11:13:36.013Z,15.60
2022-11-13T11:16:38.487Z,15.50
2022-11-13T11:19:43.706Z,15.40
2022-11-13T11:22:47.907Z,15.40
2022-11-13T11:26:03.112Z,15.50
2022-11-13T11:29:35.804Z,15.50
2022-11-13T11:33:18.708Z,15.50
2022-11-13T11:36:38.195Z,15.40
2022-11-13T11:39:59.481Z,15.40
2022-11-13T11:43:26.803Z,15.40
2022-11-13T11:46:30.031Z,15.30
2022-11-13T11:49:34.494Z,15.20
2022-11-13T11:52:42.796Z,15.20
2022-11-13T11:56:00.085Z,15.10
2022-11-13T11:59:25.147Z,15.00
2022-11-13T12:02:51.113Z,15.00
2022-11-13T12:06:23.484Z,14.90
2022-11-13T12:09:36.289Z,14.90
2022-11-13T12:13:11.931Z,14.80
2022-11-13T12:16:25.015Z,14.80
2022-11-13T12:19:38.400Z,14.80
2022-11-13T12:22:48.319Z,14.70
2022-11-13T12:26:01.923Z,14.70
2022-11-13T12:29:24.868Z,14.60
2022-11-13T12:32:41.678Z,14.50
2022-11-13T12:35:47.526Z,14.50
2022-11-13T12:39:11.897Z,14.50
2022-11-13T12:42:15.674Z,14.50
2022-11-13T12:45:36.554Z,14.50
2022-11-13T12:48:41.425Z,14.40
2022-11-13T12:51:54.772Z,14.40
2022-11-13T12:55:28.752Z,14.40
2022-11-13T12:59:30.817Z,14.40
2022-11-13T13:02:33.124Z,14.30
2022-11-13T13:05:50.894Z,14.30
2022-11-13T13:09:12.972Z,14.30
2022-11-13T13:12:59.372Z,14.30
2022-11-13T13:16:04.328Z,14.20
2022-11-13T13:19:28.288Z,14.20
2022-11-13T13:22:31.656Z,14.20
2022-11-13T13:25:35.673Z,14.10
2022-11-13T13:28:40.777Z,14.20
2022-11-13T13:32:10.071Z,14.20
2022-11-13T13:35:19.840Z,14.10
2022-11-13T13:38:41.375Z,14.10
2022-11-13T13:42:07.548Z,14.00
2022-11-13T13:45:45.471Z,14.00
2022-11-13T13:48:49.147Z,14.00
2022-11-13T13:51:53.846Z,14.00
2022-11-13T13:54:56.366Z,13.90
2022-11-13T13:58:04.218Z,13.90
2022-11-13T14:01:18.872Z,13.90
2022-11-13T14:04:23.741Z,13.90
2022-11-13T14:07:28.648Z,13.80
2022-11-13T14:10:30.435Z,13.80
2022-11-13T14:13:32.125Z,13.80
2022-11-13T14:16:37.781Z,13.80
2022-11-13T14:19:49.438Z,13.80
2022-11-13T14:22:55.355Z,13.80
2022-11-13T14:25:59.285Z,13.70
2022-11-13T14:29:02.797Z,13.70
2022-11-13T14:32:09.996Z,13.60
2022-11-13T14:35:20.084Z,13.60
2022-11-13T14:38:25.981Z,13.50
2022-11-13T14:41:40.062Z,13.40
2022-11-13T14:44:41.694Z,13.40
2022-11-13T14:47:43.759Z,13.30
2022-11-13T14:50:56.205Z,13.20
2022-11-13T14:54:33.818Z,13.10
2022-11-13T14:57:50.248Z,13.00
2022-11-13T15:00:51.883Z,12.90
2022-11-13T15:03:53.577Z,12.80
2022-11-13T15:06:59.841Z,12.70
2022-11-13T15:10:01.767Z,12.70
2022-11-13T15:13:18.745Z,12.60
2022-11-13T15:16:27.362Z,12.50
2022-11-13T15:19:37.091Z,12.30
2022-11-13T15:22:51.419Z,12.20
2022-11-13T15:25:53.060Z,12.20
2022-11-13T15:28:54.678Z,12.10
2022-11-13T15:31:57.509Z,12.00
2022-11-13T15:35:18.284Z,11.90
2022-11-13T15:38:19.957Z,11.70
2022-11-13T15:41:24.361Z,11.60
2022-11-13T15:44:26.644Z,11.40
2022-11-13T15:47:34.467Z,11.20
2022-11-13T15:50:36.197Z,11.00
2022-11-13T15:53:37.875Z,10.80
2022-11-13T15:56:40.256Z,10.70
2022-11-13T15:59:41.864Z,10.60
2022-11-13T16:02:43.621Z,10.50
2022-11-13T16:05:45.294Z,10.30
2022-11-13T16:08:51.076Z,10.20
2022-11-13T16:11:52.714Z,10.10
2022-11-13T16:14:54.405Z,10.00
2022-11-13T16:17:57.791Z,9.90
2022-11-13T16:20:59.470Z,9.80
2022-11-13T16:24:01.133Z,9.70
2022-11-13T16:27:02.960Z,9.50
2022-11-13T16:30:07.077Z,9.40
2022-11-13T16:33:22.220Z,9.30
2022-11-13T16:36:24.000Z,9.20
2022-11-13T16:39:25.637Z,9.10
2022-11-13T16:42:31.028Z,9.10
2022-11-13T16:45:32.951Z,9.00
2022-11-13T16:48:34.577Z,9.00
2022-11-13T16:51:36.527Z,8.90
2022-11-13T16:54:41.259Z,8.80
2022-11-13T16:57:43.928Z,8.70
2022-11-13T17:00:45.574Z,8.70
2022-11-13T17:03:48.751Z,8.70
2022-11-13T17:06:53.118Z,8.70
2022-11-13T17:10:29.120Z,8.70
2022-11-13T17:13:21.473Z,8.80
2022-11-13T17:16:24.515Z,8.90
2022-11-13T17:19:26.151Z,8.90
2022-11-13T17:22:27.788Z,8.90
2022-11-13T17:25:29.578Z,8.80
2022-11-13T17:28:32.575Z,8.60
2022-11-13T17:31:34.245Z,8.40
2022-11-13T17:34:36.645Z,8.20
2022-11-13T17:37:38.852Z,7.90
2022-11-13T17:40:40.515Z,7.80
2022-11-13T17:43:42.605Z,7.60
2022-11-13T17:46:44.433Z,7.40
2022-11-13T17:49:46.071Z,7.20
2022-11-13T17:52:57.991Z,7.00
2022-11-13T17:56:02.319Z,6.90
2022-11-13T17:59:04.448Z,6.70
2022-11-13T18:02:06.730Z,6.60
2022-11-13T18:05:09.758Z,6.50
2022-11-13T18:08:12.223Z,6.40
2022-11-13T18:11:35.979Z,6.40
2022-11-13T18:14:37.616Z,6.30
2022-11-13T18:17:39.307Z,6.20
2022-11-13T18:20:41.394Z,6.10
2022-11-13T18:23:43.228Z,6.10
2022-11-13T18:26:44.980Z,6.00
2022-11-13T18:29:46.554Z,5.90
2022-11-13T18:32:48.619Z,6.00
2022-11-13T18:35:50.222Z,6.00
2022-11-13T18:38:51.877Z,5.90
2022-11-13T18:41:59.082Z,5.80
2022-11-13T18:45:05.696Z,5.80
2022-11-13T18:48:07.883Z,5.80
2022-11-13T18:51:14.591Z,5.80
2022-11-13T18:54:16.233Z,5.70
2022-11-13T18:57:18.195Z,5.70
2022-11-13T19:00:22.292Z,5.60
2022-11-13T19:03:24.577Z,5.60
2022-11-13T19:06:26.551Z,5.50
2022-11-13T19:09:28.416Z,5.40
2022-11-13T19:12:30.116Z,5.40
2022-11-13T19:15:32.018Z,5.40
2022-11-13T19:18:33.681Z,5.40
2022-11-13T19:21:36.265Z,5.40
2022-11-13T19:24:40.660Z,5.40
2022-11-13T19:27:42.278Z,5.40
2022-11-13T19:30:48.418Z,5.40
2022-11-13T19:33:57.980Z,5.30
2022-11-13T19:36:59.696Z,5.30
2022-11-13T19:40:01.499Z,5.20
2022-11-13T19:43:03.163Z,5.20
2022-11-13T19:46:05.807Z,5.20
2022-11-13T19:49:07.579Z,5.10
2022-11-13T19:52:09.496Z,5.10
2022-11-13T19:55:11.200Z,5.10
2022-11-13T19:58:14.247Z,5.10
2022-11-13T20:01:22.768Z,5.10
2022-11-13T20:04:24.498Z,5.10
2022-11-13T20:07:27.482Z,5.10
2022-11-13T20:10:29.260Z,5.00
2022-11-13T20:13:32.871Z,5.00
2022-11-13T20:16:34.505Z,5.10
2022-11-13T20:19:36.139Z,5.10
2022-11-13T20:22:37.807Z,5.10
2022-11-13T20:26:11.077Z,5.10
2022-11-13T20:29:12.672Z,5.20
2022-11-13T20:32:14.301Z,5.10
2022-11-13T20:35:16.159Z,5.20
2022-11-13T20:38:17.755Z,5.20
2022-11-13T20:41:23.956Z,5.20
2022-11-13T20:44:25.605Z,5.20
2022-11-13T20:47:27.272Z,5.30
2022-11-13T20:50:28.899Z,5.30
2022-11-13T20:53:30.532Z,5.30
2022-11-13T20:56:32.175Z,5.30
2022-11-13T20:59:33.893Z,5.40
2022-11-13T21:02:35.538Z,5.40
2022-11-13T21:05:39.412Z,5.40
2022-11-13T21:08:41.075Z,5.40
2022-11-13T21:11:42.805Z,5.40
2022-11-13T21:14:54.629Z,5.50
2022-11-13T21:17:58.078Z,5.50
2022-11-13T21:21:12.075Z,5.60
2022-11-13T21:24:13.987Z,5.50
2022-11-13T21:27:15.700Z,5.60
2022-11-13T21:30:17.437Z,5.70
2022-11-13T21:33:19.316Z,5.60
2022-11-13T21:36:23.239Z,5.60
2022-11-13T21:39:24.867Z,5.60
2022-11-13T21:42:26.580Z,5.70
2022-11-13T21:45:28.265Z,5.70
2022-11-13T21:48:33.254Z,5.70
2022-11-13T21:51:37.168Z,5.70
2022-11-13T21:54:38.820Z,5.70
2022-11-13T21:57:40.703Z,5.70
2022-11-13T22:00:42.336Z,5.60
2022-11-13T22:03:44.083Z,5.60
2022-11-13T22:06:50.431Z,5.60
2022-11-13T22:09:52.133Z,5.60
2022-11-13T22:12:53.821Z,5.60
2022-11-13T22:15:55.506Z,5.60
2022-11-13T22:18:59.638Z,5.60
2022-11-13T22:22:01.226Z,5.60
2022-11-13T22:25:02.831Z,5.60
2022-11-13T22:28:04.547Z,5.60
2022-11-13T22:31:06.359Z,5.60
2022-11-13T22:34:07.972Z,5.50
2022-11-13T22:37:09.701Z,5.50
2022-11-13T22:40:11.995Z,5.50
2022-11-13T22:43:13.622Z,5.50
2022-11-13T22:46:18.756Z,5.50
2022-11-13T22:49:20.542Z,5.50
2022-11-13T22:52:22.159Z,5.50
2022-11-13T22:55:23.737Z,5.40
2022-11-13T22:58:27.219Z,5.40
2022-11-13T23:01:31.770Z,5.40
2022-11-13T23:04:33.449Z,5.30
2022-11-13T23:07:35.062Z,5.30
2022-11-13T23:10:36.726Z,5.30
2022-11-13T23:13:48.905Z,5.30
2022-11-13T23:16:50.538Z,5.30
2022-11-13T23:19:52.172Z,5.20
2022-11-13T23:22:53.773Z,5.20
2022-11-13T23:25:55.490Z,5.20
2022-11-13T23:28:57.502Z,5.20
2022-11-13T23:31:59.218Z,5.20
2022-11-13T23:35:00.922Z,5.20
2022-11-13T23:38:02.576Z,5.20
2022-11-13T23:41:04.767Z,5.20
2022-11-13T23:44:09.274Z,5.20
2022-11-13T23:47:11.460Z,5.20
2022-11-13T23:50:13.091Z,5.10
2022-11-13T23:53:15.467Z,5.10
2022-11-13T23:56:17.118Z,5.10
2022-11-13T23:59:18.714Z,5.10
